Time;durP1;ratioP1;P1;durP2;ratioP2;P2;SDS_P1;SDS_P2;PMS_P1;PMS_P2;Temp;Humidity;BMP_temperature;BMP_pressure;BME280_temperature;BME280_humidity;BME280_pressure;Samples;Min_cycle;Max_cycle;Signal;HPM_P1;HPM_P2
2023/06/20 00:00:35;;;;;;;7.55;4.30;;;17.10;99.90;;;;;;4915875;28;20506;-70
2023/06/20 00:03:00;;;;;;;8.70;4.15;;;17.10;99.90;;;;;;4915344;29;20538;-70
2023/06/20 00:05:26;;;;;;;7.97;4.00;;;17.00;99.90;;;;;;4918741;29;20080;-70
2023/06/20 00:07:54;;;;;;;10.05;4.40;;;17.00;99.90;;;;;;4917327;29;20047;-70
2023/06/20 00:10:20;;;;;;;9.20;4.05;;;17.00;99.90;;;;;;4916273;28;20023;-70
2023/06/20 00:12:45;;;;;;;9.68;4.65;;;17.00;99.90;;;;;;4916057;29;20039;-70
2023/06/20 00:15:11;;;;;;;6.30;4.43;;;17.00;99.90;;;;;;4915861;29;20458;-70
2023/06/20 00:17:38;;;;;;;6.90;4.15;;;16.90;99.90;;;;;;4921460;28;20106;-70
2023/06/20 00:20:08;;;;;;;8.23;4.22;;;16.90;99.90;;;;;;4933783;29;20073;-70
2023/06/20 00:22:34;;;;;;;7.90;3.88;;;16.80;99.90;;;;;;4933505;29;20789;-70
2023/06/20 00:25:04;;;;;;;8.20;4.13;;;16.80;99.90;;;;;;4999577;28;20948;-70
2023/06/20 00:27:30;;;;;;;8.23;4.80;;;16.70;99.90;;;;;;4917001;29;20130;-70
2023/06/20 00:29:56;;;;;;;7.28;4.60;;;16.60;99.90;;;;;;4933665;29;20417;-70
2023/06/20 00:32:22;;;;;;;10.18;4.45;;;16.50;99.90;;;;;;4932386;29;20046;-70
2023/06/20 00:34:47;;;;;;;9.98;4.57;;;16.40;99.90;;;;;;4995489;28;20043;-70
2023/06/20 00:37:13;;;;;;;6.03;4.22;;;16.30;99.90;;;;;;4922544;29;20129;-70
2023/06/20 00:39:38;;;;;;;8.13;4.38;;;16.30;99.90;;;;;;4999635;28;20432;-70
2023/06/20 00:42:05;;;;;;;8.25;4.60;;;16.30;99.90;;;;;;4932863;28;20043;-70
2023/06/20 00:44:30;;;;;;;11.13;4.93;;;16.20;99.90;;;;;;4934033;29;20169;-70
2023/06/20 00:46:57;;;;;;;8.98;4.60;;;16.20;99.90;;;;;;4934147;29;20047;-70
2023/06/20 00:49:23;;;;;;;10.30;4.45;;;16.10;99.90;;;;;;4927009;29;20024;-70
2023/06/20 00:51:49;;;;;;;9.82;4.45;;;16.10;99.90;;;;;;4981601;28;20102;-70
2023/06/20 00:54:15;;;;;;;9.65;4.28;;;16.10;99.90;;;;;;4985357;28;20053;-70
2023/06/20 00:56:42;;;;;;;8.60;4.65;;;16.10;99.90;;;;;;4914825;28;20384;-70
2023/06/20 00:59:08;;;;;;;5.88;4.22;;;16.10;99.90;;;;;;4915586;28;20456;-70
2023/06/20 01:01:34;;;;;;;8.48;4.32;;;16.00;99.90;;;;;;4915443;29;20514;-70
2023/06/20 01:04:00;;;;;;;8.90;4.18;;;16.00;99.90;;;;;;4914047;28;20111;-70
2023/06/20 01:06:48;;;;;;;9.10;4.97;;;16.00;99.90;;;;;;5451374;22;20080;-82
2023/06/20 01:09:38;;;;;;;6.55;4.40;;;15.90;99.90;;;;;;5107648;23;20178;-75
2023/06/20 01:12:15;;;;;;;9.80;4.68;;;15.90;99.90;;;;;;5034110;28;20039;-75
2023/06/20 01:15:20;;;;;;;11.43;4.70;;;15.90;99.90;;;;;;5028120;28;20528;-74
2023/06/20 01:17:55;;;;;;;5.55;4.32;;;15.80;99.90;;;;;;5014782;28;20148;-75
2023/06/20 01:20:27;;;;;;;8.48;4.35;;;15.80;99.90;;;;;;5042324;28;20056;-75
2023/06/20 01:23:05;;;;;;;10.45;4.32;;;15.70;99.90;;;;;;5030403;28;20729;-75
2023/06/20 01:25:31;;;;;;;8.70;4.63;;;15.70;99.90;;;;;;5050316;28;20251;-75
2023/06/20 01:28:06;;;;;;;7.85;4.82;;;15.70;99.90;;;;;;5030830;28;20036;-74
2023/06/20 01:30:41;;;;;;;8.52;4.22;;;15.60;99.90;;;;;;5049729;28;20335;-75
2023/06/20 01:33:08;;;;;;;10.93;4.50;;;15.60;99.90;;;;;;5018104;28;20016;-75
2023/06/20 01:35:36;;;;;;;9.07;4.28;;;15.50;99.90;;;;;;5048367;28;20028;-75
2023/06/20 01:38:07;;;;;;;8.80;4.65;;;15.50;99.90;;;;;;5030843;28;20494;-75
2023/06/20 01:40:33;;;;;;;;;;;15.50;99.90;;;;;;5047454;28;20108;-75
2023/06/20 01:43:00;;;;;;;10.63;4.40;;;15.40;99.90;;;;;;5047196;28;19908;-75
2023/06/20 01:45:32;;;;;;;5.97;4.57;;;15.40;99.90;;;;;;5030323;28;20122;-75
2023/06/20 01:48:01;;;;;;;10.50;5.10;;;15.40;99.90;;;;;;5050984;28;20032;-74
2023/06/20 01:50:29;;;;;;;12.35;4.90;;;15.40;99.90;;;;;;5049988;28;20028;-75
2023/06/20 01:52:57;;;;;;;8.95;4.43;;;15.40;99.90;;;;;;5033612;28;20133;-75
2023/06/20 01:55:23;;;;;;;9.15;4.53;;;15.40;99.90;;;;;;5054306;28;20032;-75
2023/06/20 01:57:51;;;;;;;7.63;4.40;;;15.50;99.90;;;;;;5044761;28;20220;-75
2023/06/20 02:00:18;;;;;;;7.80;4.45;;;15.50;99.90;;;;;;5051977;28;20032;-75
2023/06/20 02:05:21;;;;;;;10.05;4.53;;;15.60;99.90;;;;;;5089668;22;19928;-82
2023/06/20 02:07:48;;;;;;;8.15;4.82;;;15.70;99.90;;;;;;5050995;28;20690;-82
2023/06/20 02:10:15;;;;;;;8.70;4.57;;;15.60;99.90;;;;;;5056844;28;20077;-81
2023/06/20 02:12:42;;;;;;;8.18;4.28;;;15.70;99.90;;;;;;5050884;28;20028;-82
2023/06/20 02:15:09;;;;;;;9.00;4.72;;;15.70;99.90;;;;;;5065998;28;20714;-81
2023/06/20 02:17:38;;;;;;;9.68;4.68;;;15.70;99.90;;;;;;5062638;28;20028;-82
2023/06/20 02:20:05;;;;;;;6.53;4.38;;;15.70;99.90;;;;;;5077239;28;20056;-83
2023/06/20 02:22:32;;;;;;;7.55;4.50;;;15.70;99.90;;;;;;5070654;28;20020;-83
2023/06/20 02:25:06;;;;;;;7.88;4.22;;;15.70;99.90;;;;;;5087807;28;20024;-82
2023/06/20 02:27:33;;;;;;;10.75;5.10;;;15.70;99.90;;;;;;5066970;28;20067;-81
2023/06/20 02:30:01;;;;;;;6.75;4.60;;;15.70;99.90;;;;;;5078787;28;20034;-81
2023/06/20 02:32:28;;;;;;;7.80;4.65;;;15.70;99.90;;;;;;5066165;28;20021;-82
2023/06/20 02:34:56;;;;;;;6.28;4.63;;;15.80;99.90;;;;;;5046788;28;20433;-82
2023/06/20 02:37:25;;;;;;;5.32;4.60;;;15.80;99.90;;;;;;5066274;28;20024;-82
2023/06/20 02:39:50;;;;;;;6.72;4.65;;;15.90;99.90;;;;;;5076191;28;20483;-82
2023/06/20 02:42:17;;;;;;;11.27;5.13;;;16.00;99.90;;;;;;5063496;28;20127;-82
2023/06/20 02:44:43;;;;;;;10.45;5.15;;;16.10;99.90;;;;;;5066930;28;20419;-83
2023/06/20 02:47:16;;;;;;;7.28;4.90;;;16.20;99.90;;;;;;5086496;28;20036;-82
2023/06/20 02:50:01;;;;;;;6.90;5.03;;;16.20;99.90;;;;;;5067381;28;20028;-82
2023/06/20 02:52:31;;;;;;;7.95;4.90;;;16.20;99.90;;;;;;5073491;28;20510;-82
2023/06/20 02:55:15;;;;;;;6.90;4.55;;;16.20;99.90;;;;;;5069539;28;20035;-81
2023/06/20 02:57:58;;;;;;;7.47;4.93;;;16.20;99.90;;;;;;5076419;28;20035;-82
2023/06/20 03:00:25;;;;;;;7.90;5.00;;;16.20;99.90;;;;;;5058463;28;20040;-82
2023/06/20 03:03:13;;;;;;;7.75;5.10;;;16.30;99.90;;;;;;5067217;28;20699;-83
2023/06/20 03:05:42;;;;;;;6.78;4.78;;;16.30;99.90;;;;;;5059887;28;20079;-82
2023/06/20 03:08:10;;;;;;;9.15;4.95;;;16.40;99.90;;;;;;5080347;28;20032;-82
2023/06/20 03:10:36;;;;;;;7.35;5.10;;;16.40;99.90;;;;;;5084148;28;20039;-82
2023/06/20 03:13:03;;;;;;;7.90;5.13;;;16.40;99.90;;;;;;5049481;28;20117;-81
2023/06/20 03:15:29;;;;;;;9.65;5.22;;;16.50;99.90;;;;;;5064839;28;20025;-83
2023/06/20 03:17:54;;;;;;;8.18;4.55;;;16.50;99.90;;;;;;5064709;28;20047;-82
2023/06/20 03:20:20;;;;;;;8.43;5.13;;;16.50;99.90;;;;;;5055795;28;20032;-84
2023/06/20 03:22:46;;;;;;;9.73;5.07;;;16.50;99.90;;;;;;5060780;28;20036;-84
2023/06/20 03:25:11;;;;;;;9.10;5.43;;;16.50;99.90;;;;;;5085751;28;20028;-87
2023/06/20 03:27:37;;;;;;;11.68;4.93;;;16.60;99.90;;;;;;5084286;28;20491;-88
2023/06/20 03:30:04;;;;;;;9.07;4.80;;;16.60;99.90;;;;;;5066968;28;20103;-87
2023/06/20 03:32:29;;;;;;;6.85;4.13;;;16.60;99.90;;;;;;5067468;28;20039;-87
2023/06/20 03:34:55;;;;;;;10.13;6.00;;;16.60;99.90;;;;;;5069100;28;20028;-87
2023/06/20 03:37:21;;;;;;;11.27;5.00;;;16.60;99.90;;;;;;5085921;28;20035;-87
2023/06/20 03:39:46;;;;;;;8.57;5.22;;;16.60;99.90;;;;;;5066848;28;20036;-86
2023/06/20 03:42:12;;;;;;;7.43;4.88;;;16.50;99.90;;;;;;5057774;28;20027;-88
2023/06/20 03:44:38;;;;;;;9.15;4.82;;;16.50;99.90;;;;;;5067417;28;20522;-88
2023/06/20 03:47:04;;;;;;;8.82;5.03;;;16.40;99.90;;;;;;5088998;28;20036;-88
2023/06/20 03:49:29;;;;;;;11.57;5.10;;;16.40;99.90;;;;;;5064288;28;20048;-88
2023/06/20 03:51:55;;;;;;;9.13;4.95;;;16.40;99.90;;;;;;5048653;28;20079;-88
2023/06/20 03:54:21;;;;;;;10.00;5.72;;;16.50;99.90;;;;;;5072141;28;20024;-88
2023/06/20 03:56:47;;;;;;;9.32;5.57;;;16.50;99.90;;;;;;5074097;28;20035;-87
2023/06/20 03:59:15;;;;;;;10.45;5.95;;;16.60;99.90;;;;;;5082445;28;20043;-87
2023/06/20 04:01:41;;;;;;;12.43;6.63;;;16.50;99.90;;;;;;5048489;28;20047;-86
2023/06/20 04:04:06;;;;;;;10.35;6.10;;;16.50;99.90;;;;;;5063245;28;20062;-87
2023/06/20 04:06:32;;;;;;;10.88;6.75;;;16.50;99.90;;;;;;5062518;28;20029;-87
2023/06/20 04:08:58;;;;;;;9.32;5.90;;;16.50;99.90;;;;;;5067835;28;20028;-87
2023/06/20 04:11:24;;;;;;;9.75;6.13;;;16.50;99.90;;;;;;5066436;28;20036;-87
2023/06/20 04:13:50;;;;;;;10.48;6.50;;;16.60;99.90;;;;;;5060183;28;20462;-87
2023/06/20 04:16:16;;;;;;;8.38;5.78;;;16.60;99.90;;;;;;5069299;28;20047;-88
2023/06/20 04:18:41;;;;;;;9.15;6.43;;;16.60;99.90;;;;;;5064262;28;20051;-88
2023/06/20 04:21:07;;;;;;;10.82;6.70;;;16.60;99.90;;;;;;5062038;28;20033;-86
2023/06/20 04:23:33;;;;;;;10.52;6.43;;;16.50;99.90;;;;;;5067413;28;20106;-88
2023/06/20 04:25:58;;;;;;;11.40;7.20;;;16.50;99.90;;;;;;5048837;28;20028;-88
2023/06/20 04:28:24;;;;;;;14.07;7.57;;;16.50;99.90;;;;;;5075086;28;20029;-87
2023/06/20 04:30:52;;;;;;;9.38;6.85;;;16.50;99.90;;;;;;5076980;28;20125;-88
2023/06/20 04:33:19;;;;;;;15.48;8.80;;;16.50;99.90;;;;;;5059992;28;20043;-87
2023/06/20 04:35:44;;;;;;;19.13;9.32;;;16.50;99.90;;;;;;5068294;28;20025;-88
2023/06/20 04:38:10;;;;;;;16.00;10.10;;;16.40;99.90;;;;;;5067708;28;20037;-88
2023/06/20 04:40:35;;;;;;;16.17;10.82;;;16.30;99.90;;;;;;5049293;28;20071;-88
2023/06/20 04:43:01;;;;;;;17.52;11.25;;;16.30;99.90;;;;;;5067051;28;20539;-88
2023/06/20 04:45:26;;;;;;;17.73;11.60;;;16.40;99.90;;;;;;5050069;28;20837;-88
2023/06/20 04:47:52;;;;;;;18.95;12.30;;;16.50;99.90;;;;;;5054814;28;20036;-87
2023/06/20 04:50:18;;;;;;;18.05;11.13;;;16.50;99.90;;;;;;5067580;28;20035;-87
2023/06/20 04:52:44;;;;;;;20.00;11.73;;;16.50;99.90;;;;;;5049287;28;20078;-87
2023/06/20 04:55:10;;;;;;;22.42;12.77;;;16.50;99.90;;;;;;5060155;28;20098;-88
2023/06/20 04:57:35;;;;;;;23.10;11.85;;;16.50;99.90;;;;;;5089334;28;20496;-87
2023/06/20 05:00:03;;;;;;;19.30;12.93;;;16.60;99.90;;;;;;5063058;28;20132;-88
2023/06/20 05:02:29;;;;;;;20.40;13.15;;;16.60;99.90;;;;;;5069108;28;20772;-87
2023/06/20 05:04:54;;;;;;;19.10;11.55;;;16.70;99.90;;;;;;5060034;28;20044;-88
2023/06/20 05:07:21;;;;;;;20.98;13.38;;;16.80;99.90;;;;;;5048416;28;20055;-88
2023/06/20 05:09:48;;;;;;;21.63;13.15;;;16.90;99.90;;;;;;5051029;28;20794;-87
2023/06/20 05:12:15;;;;;;;18.23;12.65;;;17.00;99.90;;;;;;5061528;28;20084;-87
2023/06/20 05:14:40;;;;;;;18.05;12.38;;;17.10;99.90;;;;;;5048843;28;20506;-85
2023/06/20 05:17:06;;;;;;;21.98;13.07;;;17.20;99.90;;;;;;5048333;28;20028;-88
2023/06/20 05:19:33;;;;;;;20.83;12.13;;;17.30;99.90;;;;;;5057559;28;20058;-88
2023/06/20 05:21:59;;;;;;;18.50;13.15;;;17.40;99.90;;;;;;5070533;28;20024;-87
2023/06/20 05:24:24;;;;;;;15.75;11.15;;;17.40;99.90;;;;;;5067041;28;20031;-87
2023/06/20 05:26:50;;;;;;;15.90;10.70;;;17.50;99.90;;;;;;5068757;28;20094;-86
2023/06/20 05:29:15;;;;;;;17.42;10.75;;;17.60;99.90;;;;;;5079092;28;20365;-87
2023/06/20 05:31:41;;;;;;;14.40;10.77;;;17.60;99.90;;;;;;5060390;28;20109;-87
2023/06/20 05:34:07;;;;;;;16.05;10.27;;;17.70;99.90;;;;;;5069309;28;20153;-86
2023/06/20 05:36:33;;;;;;;19.17;11.73;;;17.70;99.90;;;;;;5071184;28;20075;-87
2023/06/20 05:38:58;;;;;;;17.35;12.70;;;17.70;99.90;;;;;;5074290;28;20533;-85
2023/06/20 05:41:25;;;;;;;18.17;11.23;;;17.70;99.90;;;;;;5069816;28;20052;-86
2023/06/20 05:43:51;;;;;;;22.98;14.60;;;17.70;99.90;;;;;;5053628;28;20162;-90
2023/06/20 05:46:16;;;;;;;32.80;16.30;;;17.70;99.90;;;;;;5052855;28;20067;-78
2023/06/20 05:48:43;;;;;;;44.17;15.07;;;17.70;99.90;;;;;;5050767;28;20715;-78
2023/06/20 05:51:13;;;;;;;28.80;6.55;;;17.50;99.90;;;;;;5066072;28;20052;-78
2023/06/20 05:53:41;;;;;;;32.95;6.45;;;17.30;99.90;;;;;;5066364;28;20171;-79
2023/06/20 05:56:10;;;;;;;19.75;8.10;;;17.30;99.90;;;;;;5068754;28;20044;-79
2023/06/20 05:58:36;;;;;;;20.20;10.10;;;17.30;99.90;;;;;;5066939;28;20017;-81
2023/06/20 06:01:03;;;;;;;20.13;10.20;;;17.30;99.90;;;;;;5083429;28;20039;-80
2023/06/20 06:03:32;;;;;;;29.08;11.75;;;17.40;99.90;;;;;;5085806;28;20051;-79
2023/06/20 06:05:58;;;;;;;24.88;10.90;;;17.50;99.90;;;;;;5063139;28;20059;-81
2023/06/20 06:08:25;;;;;;;19.83;8.85;;;17.40;99.90;;;;;;5066650;28;20064;-82
2023/06/20 06:10:52;;;;;;;18.98;8.63;;;17.40;99.90;;;;;;5081950;28;20035;-82
2023/06/20 06:13:18;;;;;;;21.48;7.85;;;17.40;99.90;;;;;;5061542;28;20246;-83
2023/06/20 06:15:43;;;;;;;57.65;9.73;;;17.40;99.90;;;;;;5074122;28;20511;-81
2023/06/20 06:18:09;;;;;;;40.13;8.30;;;17.60;99.90;;;;;;5077484;28;20592;-81
2023/06/20 06:20:35;;;;;;;17.52;7.18;;;17.60;99.90;;;;;;5072988;28;20028;-80
2023/06/20 06:23:01;;;;;;;25.98;7.10;;;17.70;99.90;;;;;;5068737;28;20097;-82
2023/06/20 06:25:26;;;;;;;16.67;6.55;;;17.70;99.90;;;;;;5077165;28;20482;-80
2023/06/20 06:27:52;;;;;;;20.30;6.93;;;17.70;99.90;;;;;;5066475;28;20536;-80
2023/06/20 06:30:18;;;;;;;26.63;7.15;;;17.60;99.90;;;;;;5076769;28;20020;-79
2023/06/20 06:32:47;;;;;;;18.85;8.18;;;17.50;99.90;;;;;;5073194;28;20093;-81
2023/06/20 06:35:16;;;;;;;23.88;9.45;;;17.60;99.90;;;;;;5086955;28;20028;-82
2023/06/20 06:37:42;;;;;;;36.65;9.60;;;17.60;99.90;;;;;;5086670;28;20515;-83
2023/06/20 06:40:09;;;;;;;24.88;9.77;;;17.70;99.90;;;;;;5068382;28;20043;-82
2023/06/20 06:42:35;;;;;;;231.15;118.75;;;17.70;99.90;;;;;;5056661;28;20024;-82
2023/06/20 06:45:01;;;;;;;72.63;36.22;;;17.80;99.90;;;;;;5058264;28;20028;-85
2023/06/20 06:47:26;;;;;;;28.77;14.07;;;17.90;99.90;;;;;;5061532;28;20101;-84
2023/06/20 06:49:52;;;;;;;29.73;13.68;;;18.00;99.90;;;;;;5081805;28;20100;-83
2023/06/20 06:52:18;;;;;;;24.27;12.75;;;18.10;99.90;;;;;;5051277;28;20035;-83
2023/06/20 06:54:43;;;;;;;42.53;13.00;;;18.20;99.90;;;;;;5064216;28;20063;-85
2023/06/20 06:57:09;;;;;;;30.50;13.40;;;18.20;99.90;;;;;;5050798;28;20094;-83
2023/06/20 06:59:34;;;;;;;38.03;16.92;;;18.20;99.90;;;;;;5073127;28;20180;-85
2023/06/20 07:02:00;;;;;;;60.33;22.30;;;18.30;99.90;;;;;;5059162;28;20036;-84
2023/06/20 07:04:26;;;;;;;81.57;27.60;;;18.30;99.90;;;;;;5070024;28;20048;-84
2023/06/20 07:06:51;;;;;;;96.75;33.92;;;18.40;99.90;;;;;;5065185;28;20488;-84
2023/06/20 07:09:17;;;;;;;118.65;36.08;;;18.80;99.90;;;;;;5068347;28;20420;-84
2023/06/20 07:11:43;;;;;;;99.97;33.55;;;18.80;99.90;;;;;;5065715;28;20053;-83
2023/06/20 07:14:08;;;;;;;124.95;37.72;;;18.80;99.90;;;;;;5052632;28;20031;-83
2023/06/20 07:16:34;;;;;;;130.45;42.88;;;19.10;99.90;;;;;;5062634;28;20036;-83
2023/06/20 07:18:59;;;;;;;136.65;44.17;;;19.40;99.90;;;;;;5048200;28;20464;-83
2023/06/20 07:21:26;;;;;;;152.88;47.28;;;19.60;99.90;;;;;;5080081;28;20036;-83
2023/06/20 07:23:52;;;;;;;152.20;47.05;;;20.10;99.90;;;;;;5048737;28;20033;-83
2023/06/20 07:26:18;;;;;;;146.80;46.80;;;20.20;99.90;;;;;;5058064;28;20482;-82
2023/06/20 07:28:43;;;;;;;147.48;47.63;;;20.50;99.90;;;;;;5053247;28;20024;-83
2023/06/20 07:31:16;;;;;;;129.15;45.05;;;20.70;99.90;;;;;;5081220;28;20042;-87
2023/06/20 07:33:41;;;;;;;126.00;40.85;;;20.40;99.90;;;;;;5068729;28;20426;-84
2023/06/20 07:36:07;;;;;;;128.45;41.53;;;20.30;99.90;;;;;;5060950;28;20028;-82
2023/06/20 07:38:33;;;;;;;109.53;37.20;;;20.40;99.90;;;;;;5068043;28;20036;-81
2023/06/20 07:40:59;;;;;;;116.25;39.00;;;20.10;99.90;;;;;;5051405;28;20033;-82
2023/06/20 07:43:25;;;;;;;117.70;39.00;;;20.10;99.90;;;;;;5072818;28;20330;-80
2023/06/20 07:45:51;;;;;;;93.05;35.20;;;20.10;99.90;;;;;;5052796;28;20139;-85
2023/06/20 07:48:17;;;;;;;100.90;36.63;;;20.10;99.90;;;;;;5051373;28;20062;-81
2023/06/20 07:50:43;;;;;;;85.10;32.78;;;19.70;99.90;;;;;;5046020;28;20489;-83
2023/06/20 07:53:08;;;;;;;107.78;39.38;;;19.70;99.90;;;;;;5052900;28;20028;-83
2023/06/20 07:55:34;;;;;;;106.40;39.38;;;19.90;99.90;;;;;;5073795;28;20077;-83
2023/06/20 07:57:59;;;;;;;117.47;43.00;;;20.10;99.90;;;;;;5072896;28;20044;-82
2023/06/20 08:00:25;;;;;;;109.25;40.55;;;20.20;99.90;;;;;;5065034;28;20054;-83
2023/06/20 08:02:52;;;;;;;69.20;32.40;;;20.20;99.90;;;;;;5071438;28;20039;-83
2023/06/20 08:05:18;;;;;;;87.40;35.60;;;20.10;99.90;;;;;;5073691;28;20060;-83
2023/06/20 08:07:43;;;;;;;58.20;28.17;;;20.00;99.90;;;;;;5070751;28;20157;-83
2023/06/20 08:10:10;;;;;;;88.13;34.75;;;20.00;99.90;;;;;;5079436;28;20421;-83
2023/06/20 08:12:37;;;;;;;39.00;21.38;;;20.20;99.90;;;;;;5056552;28;20048;-84
2023/06/20 08:15:02;;;;;;;40.03;23.13;;;19.90;99.90;;;;;;5075736;28;20028;-83
2023/06/20 08:17:28;;;;;;;40.08;23.33;;;19.70;99.90;;;;;;5067756;28;20067;-83
2023/06/20 08:19:53;;;;;;;53.75;28.92;;;19.40;99.90;;;;;;5070960;28;20033;-84
2023/06/20 08:22:26;;;;;;;44.67;23.98;;;19.50;99.90;;;;;;5038726;28;20494;-79
2023/06/20 08:24:52;;;;;;;46.30;24.23;;;19.40;99.90;;;;;;5040288;28;20029;-76
2023/06/20 08:27:18;;;;;;;44.15;26.02;;;19.40;99.90;;;;;;5038410;28;20041;-77
2023/06/20 08:29:43;;;;;;;61.35;30.67;;;19.30;99.90;;;;;;5038267;28;20054;-77
2023/06/20 08:32:09;;;;;;;40.38;23.95;;;19.50;99.90;;;;;;5031335;28;20155;-76
2023/06/20 08:34:34;;;;;;;51.00;26.48;;;19.30;99.90;;;;;;5032488;28;20044;-76
2023/06/20 08:37:00;;;;;;;36.03;21.45;;;19.30;99.90;;;;;;5031268;28;20032;-76
2023/06/20 08:39:26;;;;;;;42.10;21.60;;;19.30;99.90;;;;;;5030532;28;20486;-76
2023/06/20 08:41:52;;;;;;;31.52;20.90;;;19.30;99.90;;;;;;5035471;28;20123;-76
2023/06/20 08:44:18;;;;;;;44.63;24.20;;;19.40;99.90;;;;;;5033451;28;20553;-76
2023/06/20 08:46:45;;;;;;;34.05;19.85;;;19.30;99.90;;;;;;5035521;28;20475;-77
2023/06/20 08:49:14;;;;;;;40.50;24.17;;;19.30;99.90;;;;;;5057602;28;20027;-75
2023/06/20 08:51:43;;;;;;;46.25;25.92;;;19.30;99.90;;;;;;5045629;28;20090;-77
2023/06/20 08:54:13;;;;;;;69.05;33.13;;;19.50;99.90;;;;;;5046681;28;20121;-77
2023/06/20 08:56:39;;;;;;;87.75;39.75;;;19.80;99.90;;;;;;5050404;28;20024;-77
2023/06/20 08:59:05;;;;;;;50.28;27.63;;;20.10;99.90;;;;;;5041051;28;20051;-77
2023/06/20 09:01:30;;;;;;;67.65;31.30;;;20.00;99.90;;;;;;5055962;28;20040;-77
2023/06/20 09:04:01;;;;;;;46.65;24.27;;;20.20;99.90;;;;;;5039103;28;20116;-77
2023/06/20 09:06:37;;;;;;;54.43;28.07;;;20.20;99.90;;;;;;5034017;28;20024;-77
2023/06/20 09:09:13;;;;;;;38.80;24.08;;;20.10;99.90;;;;;;5066366;28;20267;-77
2023/06/20 09:11:39;;;;;;;49.33;27.88;;;19.90;99.90;;;;;;5035343;28;20037;-76
2023/06/20 09:14:04;;;;;;;32.65;18.38;;;20.20;99.90;;;;;;5034694;28;20029;-76
2023/06/20 09:16:30;;;;;;;47.45;27.25;;;20.50;99.90;;;;;;5041664;28;20074;-77
2023/06/20 09:19:02;;;;;;;42.53;25.30;;;20.50;99.90;;;;;;5070469;28;20093;-77
2023/06/20 09:21:27;;;;;;;45.30;27.00;;;20.70;99.90;;;;;;5052650;28;20060;-77
2023/06/20 09:24:06;;;;;;;21.60;16.77;;;20.90;99.90;;;;;;5033104;28;20520;-77
2023/06/20 09:26:33;;;;;;;18.73;10.75;;;20.90;99.90;;;;;;5034812;28;20122;-76
2023/06/20 09:29:05;;;;;;;25.42;15.95;;;20.60;99.90;;;;;;5045085;28;20106;-77
2023/06/20 09:31:40;;;;;;;39.10;22.58;;;20.90;99.90;;;;;;5035483;28;20110;-77
2023/06/20 09:34:08;;;;;;;60.15;33.15;;;21.80;99.90;;;;;;5013123;28;20030;-77
2023/06/20 09:36:34;;;;;;;24.30;15.73;;;23.00;99.90;;;;;;5020663;28;20476;-76
2023/06/20 09:39:01;;;;;;;14.98;9.48;;;23.50;99.90;;;;;;5018048;28;20149;-77
2023/06/20 09:41:26;;;;;;;11.63;7.97;;;23.60;99.90;;;;;;5013835;28;20535;-77
2023/06/20 09:43:52;;;;;;;10.25;6.68;;;23.00;99.90;;;;;;5026589;28;20059;-77
2023/06/20 09:46:17;;;;;;;11.30;7.03;;;22.50;99.90;;;;;;5048998;28;20033;-78
2023/06/20 09:48:44;;;;;;;11.77;6.00;;;23.30;99.90;;;;;;5024180;28;20030;-78
2023/06/20 09:51:10;;;;;;;11.27;5.03;;;24.20;99.90;;;;;;5023484;28;20117;-80
2023/06/20 09:53:45;;;;;;;9.35;4.68;;;23.80;99.90;;;;;;5033213;28;20103;-78
2023/06/20 09:56:12;;;;;;;10.13;4.68;;;23.20;99.90;;;;;;5038133;28;20033;-77
2023/06/20 09:58:42;;;;;;;6.85;3.80;;;23.70;99.90;;;;;;5029565;28;20029;-78
2023/06/20 10:01:13;;;;;;;6.17;3.87;;;24.20;99.90;;;;;;5027855;28;20093;-77
2023/06/20 10:03:40;;;;;;;6.68;3.40;;;26.20;99.90;;;;;;5024209;28;20702;-84
2023/06/20 10:06:06;;;;;;;5.68;3.40;;;27.60;99.90;;;;;;5028516;28;20041;-77
2023/06/20 10:08:33;;;;;;;5.22;2.58;;;28.90;99.90;;;;;;5027383;28;20033;-77
2023/06/20 10:10:59;;;;;;;8.13;2.97;;;29.20;99.90;;;;;;5027067;28;20033;-77
2023/06/20 10:13:25;;;;;;;7.65;2.80;;;29.10;99.90;;;;;;5027437;28;20522;-77
2023/06/20 10:15:51;;;;;;;4.95;2.38;;;28.40;99.90;;;;;;5056574;28;20051;-77
2023/06/20 10:18:32;;;;;;;5.38;2.60;;;27.30;99.90;;;;;;5058098;28;20028;-76
2023/06/20 10:21:01;;;;;;;;;;;26.00;99.90;;;;;;5039951;28;20057;-76
2023/06/20 10:23:31;;;;;;;5.30;2.60;;;26.00;99.90;;;;;;5027997;28;19952;-76
2023/06/20 10:25:58;;;;;;;5.85;2.83;;;25.30;99.90;;;;;;5025234;28;20430;-76
2023/06/20 10:28:24;;;;;;;6.22;2.75;;;25.30;99.90;;;;;;5040911;28;20120;-77
2023/06/20 10:30:50;;;;;;;5.63;2.38;;;25.50;99.90;;;;;;5047645;28;20573;-77
2023/06/20 10:33:29;;;;;;;4.53;2.28;;;25.90;99.90;;;;;;5060555;28;20044;-77
2023/06/20 10:36:09;;;;;;;6.03;2.53;;;26.70;99.90;;;;;;5028770;28;20129;-77
2023/06/20 10:38:59;;;;;;;2.75;2.00;;;27.00;99.90;;;;;;5018567;28;20041;-77
2023/06/20 10:41:28;;;;;;;4.45;2.22;;;27.60;99.90;;;;;;5032834;28;20391;-76
2023/06/20 10:43:55;;;;;;;4.30;1.85;;;27.50;99.90;;;;;;5026571;28;20416;-77
2023/06/20 10:46:36;;;;;;;3.80;1.73;;;27.30;99.90;;;;;;5029857;28;20036;-77
2023/06/20 10:49:06;;;;;;;;;;;26.60;99.90;;;;;;5032484;28;20507;-76
2023/06/20 10:51:46;;;;;;;4.22;2.22;;;24.90;99.90;;;;;;5038671;28;20460;-76
2023/06/20 10:54:12;;;;;;;4.45;2.65;;;24.00;99.90;;;;;;5027380;28;20376;-77
2023/06/20 10:56:38;;;;;;;4.20;2.13;;;23.40;99.90;;;;;;5027851;28;20479;-77
2023/06/20 10:59:18;;;;;;;5.78;2.30;;;23.50;99.90;;;;;;5029808;28;20025;-77
2023/06/20 11:01:44;;;;;;;6.00;2.45;;;23.90;99.90;;;;;;5027697;28;20045;-79
2023/06/20 11:04:11;;;;;;;3.92;3.00;;;23.80;99.90;;;;;;5031393;28;20106;-78
2023/06/20 11:06:37;;;;;;;5.38;2.50;;;23.90;99.90;;;;;;5029985;28;20549;-77
2023/06/20 11:09:03;;;;;;;3.67;2.08;;;24.10;99.90;;;;;;5019777;28;20029;-78
2023/06/20 11:11:38;;;;;;;4.10;2.30;;;24.90;99.90;;;;;;5024354;28;20318;-79
2023/06/20 11:14:10;;;;;;;3.95;2.53;;;24.60;99.90;;;;;;5016465;28;20404;-78
2023/06/20 11:16:36;;;;;;;4.65;2.40;;;24.50;99.90;;;;;;5031729;28;20434;-78
2023/06/20 11:19:01;;;;;;;5.03;2.50;;;24.30;99.90;;;;;;5023934;28;20049;-78
2023/06/20 11:21:27;;;;;;;4.72;2.22;;;24.70;99.90;;;;;;5030751;28;20049;-78
2023/06/20 11:24:00;;;;;;;5.13;2.47;;;24.60;99.90;;;;;;5020424;28;20438;-78
2023/06/20 11:26:30;;;;;;;5.63;2.67;;;24.30;99.90;;;;;;4327208;28;10000703;-77
2023/06/20 11:29:00;;;;;;;3.97;2.30;;;24.40;99.90;;;;;;5014213;28;20460;-77
2023/06/20 11:31:25;;;;;;;3.78;2.53;;;25.00;99.90;;;;;;5019866;28;20887;-77
2023/06/20 11:34:04;;;;;;;3.38;1.83;;;25.70;99.90;;;;;;5011174;28;20037;-78
2023/06/20 11:36:31;;;;;;;4.22;2.00;;;26.10;99.90;;;;;;5010802;28;20403;-78
2023/06/20 11:38:59;;;;;;;3.72;1.80;;;27.20;99.90;;;;;;5046499;28;20052;-78
2023/06/20 11:41:31;;;;;;;4.20;2.25;;;27.50;99.90;;;;;;5017004;28;20048;-78
2023/06/20 11:43:58;;;;;;;3.83;2.25;;;26.80;99.90;;;;;;5012942;28;20025;-77
2023/06/20 11:46:24;;;;;;;6.68;2.50;;;26.40;99.90;;;;;;5017427;28;20033;-77
2023/06/20 11:48:51;;;;;;;4.00;2.58;;;26.10;99.90;;;;;;5034534;28;20051;-78
2023/06/20 11:51:20;;;;;;;6.50;2.45;;;26.00;99.90;;;;;;5018072;28;20060;-78
2023/06/20 11:53:47;;;;;;;4.68;2.30;;;26.60;99.90;;;;;;5037913;28;20025;-78
2023/06/20 11:56:14;;;;;;;3.85;2.13;;;26.70;99.90;;;;;;5038483;28;20037;-78
2023/06/20 11:58:49;;;;;;;2.75;2.08;;;26.60;99.90;;;;;;5026608;28;20021;-77
2023/06/20 12:01:24;;;;;;;4.35;1.80;;;26.50;99.90;;;;;;5024943;28;20187;-78
2023/06/20 12:04:10;;;;;;;5.30;2.42;;;26.00;99.90;;;;;;5022554;28;20025;-78
2023/06/20 12:06:37;;;;;;;4.45;2.00;;;26.20;99.90;;;;;;5016178;28;20033;-78
2023/06/20 12:09:03;;;;;;;3.67;1.90;;;25.30;99.90;;;;;;5016984;28;20185;-78
2023/06/20 12:11:29;;;;;;;3.47;2.00;;;25.30;99.90;;;;;;5023356;28;20120;-79
2023/06/20 12:13:56;;;;;;;3.78;1.98;;;25.00;99.90;;;;;;5053543;28;20027;-79
2023/06/20 12:16:23;;;;;;;3.65;1.90;;;25.00;99.90;;;;;;5018391;28;20120;-78
2023/06/20 12:18:49;;;;;;;3.50;2.10;;;24.90;99.90;;;;;;5021844;28;20044;-78
2023/06/20 12:21:15;;;;;;;3.97;1.98;;;24.70;99.90;;;;;;5020951;28;20057;-78
2023/06/20 12:23:41;;;;;;;5.00;2.20;;;24.70;99.90;;;;;;5022087;28;20431;-78
2023/06/20 12:26:07;;;;;;;3.45;1.98;;;24.60;99.90;;;;;;5051024;28;20081;-78
2023/06/20 12:28:34;;;;;;;3.60;1.90;;;24.70;99.90;;;;;;5023954;28;20036;-78
2023/06/20 12:30:59;;;;;;;3.40;2.00;;;25.10;99.90;;;;;;5018910;28;20041;-78
2023/06/20 12:33:25;;;;;;;4.63;2.35;;;24.30;99.90;;;;;;5021488;28;20029;-78
2023/06/20 12:35:52;;;;;;;3.08;2.25;;;24.10;99.90;;;;;;5023748;28;20407;-77
2023/06/20 12:38:18;;;;;;;3.67;2.30;;;24.50;99.90;;;;;;5030750;28;20029;-78
2023/06/20 12:40:44;;;;;;;4.00;2.67;;;24.70;99.90;;;;;;5023131;28;20624;-79
2023/06/20 12:43:10;;;;;;;4.13;2.75;;;24.80;99.90;;;;;;5032192;28;20045;-78